Kezdőlap
METAR-TAF:

METAR-TAF

Repülőterek :

Csengtu, Kína

földrajzi szélesség: 30-40N, földrajzi hosszúság: 104-01E, magasság: 508 m

Jelenlegi meteorológiai megfigyelések

A jelentés 22 perccel ezelõtt készült, 06:00 UTC
Északi szél 4 kt, északnyugati és kelet-északkeleti között változik
Hőmérséklet 11°C
Páratartalom 76%
Légköri nyomás 1014 hPa
Látótávolság 10 km, vagy több
Szórványos felhőzet 3300 lábon

METAR: ZUUU 230600Z 01002MPS 310V060 9999 SCT033 11/07 Q1014 NOSIG

Idő: 14:22 (06:22 UTC)

Előrejelzés

A jelentés 4 órával és 13 perccel ezelõtt készült, 02:09 UTC
Az előrejelzés 23-én 06 óra UTC és 24-én 06 óra UTC között érvényes
Észak-északkeleti szél 6 kt
Látótávolság: 5000 m
Szórványos felhőzet 5000 lábon
Párásság
23-én 14 óra UTC és 23-én 18 óra UTC között ideiglenes
enyhe záporok

TAF: ZUUU 230209Z 2306/2406 03003MPS 5000 BR SCT050 TX17/2307Z TN04/2323Z TEMPO 2314/2318 -SHRA

Meteorológiai megfigyelések és előrejelzések több, mint 4000 repülőtéren (METAR és TAF jelentéseket).

A térképen piros és sárga pontok jelzik az elérhető meteorológiai állomásokat.

Mozgassa az egeret a pont fölött, hogy megjelenjen az állomás neve.

Azután kattintson az időjárási megfigyelések és előrejelzések megtekintéséhez.

A térkép megváltoztatása: kattintson a fekete keresztel jelölt zöld gombra ráközelítéshez, a vonallal jelölt zöld gombra távolításhoz, vagy a zöld nyilakra a szomszédos térképek eléréséhez.


METAR-TAF: